Burbank, California
Current Conditions -  °F | °C
As of 6:53 PM on Tuesday 21 Oct 2014 (Local Time) from KBUR Reporting Station
Clear Clear  
Wind Chill: 70°   Ceiling: Unl
Heat Index: 70°   Visibility: 10mi
Dew Point: 59°   Wind: 3mph
Humidity: 68%   Direction: 170°S
Pressure: 29.84"   Gusts: NA
Location:  34.18°N, 118.3°W
Report Text: KBUR 220153Z 17003KT 10SM CLR 21/15 A2984 RMK AO2 SLPNO T02110150
Loading
Personal Weather Stations






























Interactive Weather Map
Tropical Storm Tracking
New forecast layout! Learn more

10-Day Weather Forecast

Advertisements
Track Severe Weather on mobile